Time;durP1;ratioP1;P1;durP2;ratioP2;P2;SDS_P1;SDS_P2;PMS_P1;PMS_P2;Temp;Humidity;BMP_temperature;BMP_pressure;BME280_temperature;BME280_humidity;BME280_pressure;Samples;Min_cycle;Max_cycle;Signal;HPM_P1;HPM_P2
2024/02/21 00:01:03;;;;;;;;;9.33;5.00;;;;;-144.24;100.00;114865.94;5051817;28;46735;-71
2024/02/21 00:03:29;;;;;;;;;9.33;8.00;;;;;-144.24;100.00;114865.94;5056448;28;45428;-71
2024/02/21 00:05:54;;;;;;;;;9.67;8.00;;;;;-144.24;100.00;114865.94;5055460;28;45474;-70
2024/02/21 00:08:19;;;;;;;;;8.00;8.00;;;;;-144.24;100.00;114865.94;5057203;28;45659;-72
2024/02/21 00:10:45;;;;;;;;;10.67;9.00;;;;;-144.24;100.00;114865.94;5049734;28;45616;-74
2024/02/21 00:13:10;;;;;;;;;10.00;9.00;;;;;-144.24;100.00;114865.94;5052391;28;71899;-73
2024/02/21 00:15:35;;;;;;;;;14.00;9.00;;;;;-144.24;100.00;114865.94;5054352;28;50653;-71
2024/02/21 00:18:01;;;;;;;;;15.67;9.67;;;;;-144.24;100.00;114865.94;5047082;28;64834;-71
2024/02/21 00:20:26;;;;;;;;;11.00;9.33;;;;;-144.24;100.00;114865.94;5052665;28;47983;-71
2024/02/21 00:22:52;;;;;;;;;15.00;9.67;;;;;-144.24;100.00;114865.94;5057728;28;45395;-72
2024/02/21 00:25:17;;;;;;;;;10.00;10.00;;;;;-144.24;100.00;114865.94;5054517;28;45310;-72
2024/02/21 00:27:43;;;;;;;;;11.67;10.00;;;;;-144.24;100.00;114865.94;5046280;28;45390;-71
2024/02/21 00:30:09;;;;;;;;;11.33;8.67;;;;;-144.24;100.00;114865.94;5055797;28;46425;-73
2024/02/21 00:32:34;;;;;;;;;9.00;7.25;;;;;-144.24;100.00;114865.94;5052779;28;45665;-74
2024/02/21 00:35:01;;;;;;;;;12.67;9.67;;;;;-144.24;100.00;114865.94;5050870;28;66142;-72
2024/02/21 00:37:26;;;;;;;;;9.00;9.00;;;;;-144.24;100.00;114865.94;5051393;28;45379;-72
2024/02/21 00:39:52;;;;;;;;;8.00;8.00;;;;;-144.24;100.00;114865.94;5057300;28;46480;-72
2024/02/21 00:42:18;;;;;;;;;10.67;10.67;;;;;-144.24;100.00;114865.94;5042310;28;70149;-71
2024/02/21 00:44:43;;;;;;;;;14.33;10.00;;;;;-144.24;100.00;114865.94;5050728;28;45888;-71
2024/02/21 00:47:10;;;;;;;;;11.33;8.67;;;;;-144.24;100.00;114865.94;5047316;28;62787;-71
2024/02/21 00:49:35;;;;;;;;;8.67;6.67;;;;;-144.24;100.00;114865.94;5054012;28;45708;-72
2024/02/21 00:52:00;;;;;;;;;10.50;9.25;;;;;-144.24;100.00;114865.94;5048029;28;67060;-71
2024/02/21 00:54:26;;;;;;;;;12.00;9.67;;;;;-144.24;100.00;114865.94;5051720;28;47687;-71
2024/02/21 00:56:51;;;;;;;;;12.33;10.00;;;;;-144.24;100.00;114865.94;5053645;28;55670;-71
2024/02/21 00:59:16;;;;;;;;;12.00;9.00;;;;;-144.24;100.00;114865.94;5051912;28;65641;-71
2024/02/21 01:01:42;;;;;;;;;11.33;9.00;;;;;-144.24;100.00;114865.94;5047869;28;68155;-70
2024/02/21 01:04:08;;;;;;;;;12.33;9.33;;;;;-144.24;100.00;114865.94;5055692;28;45279;-71
2024/02/21 01:06:34;;;;;;;;;9.33;8.67;;;;;-144.24;100.00;114865.94;5047392;28;45344;-72
2024/02/21 01:08:59;;;;;;;;;9.67;9.67;;;;;-144.24;100.00;114865.94;5053483;28;72188;-74
2024/02/21 01:11:24;;;;;;;;;12.67;9.00;;;;;-144.24;100.00;114865.94;5043613;28;45272;-72
2024/02/21 01:13:50;;;;;;;;;11.33;10.00;;;;;-144.24;100.00;114865.94;5053905;28;67086;-71
2024/02/21 01:16:15;;;;;;;;;9.00;8.00;;;;;-144.24;100.00;114865.94;5047258;28;45677;-71
2024/02/21 01:18:40;;;;;;;;;12.67;9.00;;;;;-144.24;100.00;114865.94;5048087;28;72858;-72
2024/02/21 01:21:07;;;;;;;;;8.67;8.67;;;;;-144.24;100.00;114865.94;5045487;28;45449;-73
2024/02/21 01:23:33;;;;;;;;;11.00;10.00;;;;;-144.24;100.00;114865.94;5053707;28;46495;-71
2024/02/21 01:25:59;;;;;;;;;12.00;10.67;;;;;-144.24;100.00;114865.94;5050952;28;45637;-71
2024/02/21 01:28:24;;;;;;;;;10.33;8.67;;;;;-144.24;100.00;114865.94;5051141;28;46305;-71
2024/02/21 01:30:50;;;;;;;;;8.33;7.33;;;;;-144.24;100.00;114865.94;5044889;28;69343;-74
2024/02/21 01:33:15;;;;;;;;;14.67;12.00;;;;;-144.24;100.00;114865.94;5054139;28;45493;-73
2024/02/21 01:35:41;;;;;;;;;12.00;9.00;;;;;-144.24;100.00;114865.94;5047252;28;45465;-73
2024/02/21 01:38:06;;;;;;;;;9.00;9.00;;;;;-144.24;100.00;114865.94;5043169;28;71424;-70
2024/02/21 01:40:31;;;;;;;;;13.67;11.00;;;;;-144.24;100.00;114865.94;5054510;28;71224;-71
2024/02/21 01:42:57;;;;;;;;;16.33;10.67;;;;;-144.24;100.00;114865.94;5051553;28;45405;-72
2024/02/21 01:45:22;;;;;;;;;11.00;11.00;;;;;-144.24;100.00;114865.94;5045027;28;46182;-71
2024/02/21 01:47:48;;;;;;;;;14.50;11.75;;;;;-144.24;100.00;114865.94;5045780;28;55234;-70
2024/02/21 01:50:14;;;;;;;;;14.25;10.25;;;;;-144.24;100.00;114865.94;5050202;28;45427;-72
2024/02/21 01:52:40;;;;;;;;;13.00;8.67;;;;;-144.24;100.00;114865.94;5053675;28;55126;-74
2024/02/21 01:55:06;;;;;;;;;12.00;9.00;;;;;-144.24;100.00;114865.94;5039596;28;61944;-72
2024/02/21 01:57:31;;;;;;;;;12.00;6.67;;;;;-144.24;100.00;114865.94;5049961;28;45559;-72
2024/02/21 01:59:57;;;;;;;;;15.50;11.00;;;;;-144.24;100.00;114865.94;5051310;28;69084;-72
2024/02/21 02:02:22;;;;;;;;;14.00;11.00;;;;;-144.24;100.00;114865.94;5049137;28;49781;-70
2024/02/21 02:04:48;;;;;;;;;9.00;9.00;;;;;-144.24;100.00;114865.94;5046464;28;45462;-73
2024/02/21 02:07:13;;;;;;;;;17.00;12.33;;;;;-144.24;100.00;114865.94;5047640;28;69979;-73
2024/02/21 02:09:38;;;;;;;;;12.25;11.00;;;;;-144.24;100.00;114865.94;5046218;28;45470;-71
2024/02/21 02:12:04;;;;;;;;;18.33;12.00;;;;;-144.24;100.00;114865.94;5045805;28;68643;-73
2024/02/21 02:14:29;;;;;;;;;12.00;9.67;;;;;-144.24;100.00;114865.94;5050505;28;45378;-71
2024/02/21 02:16:55;;;;;;;;;10.50;10.50;;;;;-144.24;100.00;114865.94;5049442;28;74231;-72
2024/02/21 02:19:20;;;;;;;;;18.50;12.25;;;;;-144.24;100.00;114865.94;5049980;28;70642;-74
2024/02/21 02:21:53;;;;;;;;;14.50;11.75;;;;;-144.24;100.00;114865.94;5050590;28;64419;-72
2024/02/21 02:24:19;;;;;;;;;10.25;8.00;;;;;-144.24;100.00;114865.94;5044281;28;45493;-72
2024/02/21 02:26:44;;;;;;;;;14.75;10.50;;;;;-144.24;100.00;114865.94;5041324;28;45820;-72
2024/02/21 02:29:09;;;;;;;;;15.00;12.00;;;;;-144.24;100.00;114865.94;5046096;28;72504;-72
2024/02/21 02:31:35;;;;;;;;;12.50;10.50;;;;;-144.24;100.00;114865.94;5047124;28;58572;-72
2024/02/21 02:34:00;;;;;;;;;18.25;10.75;;;;;-144.24;100.00;114865.94;5046180;28;45358;-73
2024/02/21 02:36:25;;;;;;;;;13.25;11.50;;;;;-144.24;100.00;114865.94;5051941;28;46276;-72
2024/02/21 02:38:51;;;;;;;;;7.75;5.00;;;;;-144.24;100.00;114865.94;5041405;28;56224;-71
2024/02/21 02:41:16;;;;;;;;;16.50;13.00;;;;;-144.24;100.00;114865.94;5047303;28;45478;-71
2024/02/21 02:43:41;;;;;;;;;11.00;10.00;;;;;-144.24;100.00;114865.94;5051393;28;60220;-72
2024/02/21 02:46:07;;;;;;;;;15.75;10.00;;;;;-144.24;100.00;114865.94;5049293;28;63496;-72
2024/02/21 02:48:32;;;;;;;;;17.00;11.25;;;;;-144.24;100.00;114865.94;5046769;28;57300;-72
2024/02/21 02:50:57;;;;;;;;;11.50;11.50;;;;;-144.24;100.00;114865.94;5051228;28;59070;-71
2024/02/21 02:53:23;;;;;;;;;14.00;10.50;;;;;-144.24;100.00;114865.94;5045894;28;45592;-72
2024/02/21 02:55:48;;;;;;;;;15.50;12.50;;;;;-144.24;100.00;114865.94;5053381;28;69456;-72
2024/02/21 02:58:13;;;;;;;;;12.75;11.00;;;;;-144.24;100.00;114865.94;5049939;28;69861;-74
2024/02/21 03:00:39;;;;;;;;;17.50;12.50;;;;;-144.24;100.00;114865.94;5052019;28;45370;-70
2024/02/21 03:03:04;;;;;;;;;12.00;11.50;;;;;-144.24;100.00;114865.94;5046214;28;45474;-72
2024/02/21 03:05:30;;;;;;;;;17.00;12.00;;;;;-144.24;100.00;114865.94;5052598;28;46378;-74
2024/02/21 03:07:55;;;;;;;;;19.00;12.00;;;;;-144.24;100.00;114865.94;5041300;28;45784;-71
2024/02/21 03:10:20;;;;;;;;;14.50;11.75;;;;;-144.24;100.00;114865.94;5045876;28;68986;-71
2024/02/21 03:12:46;;;;;;;;;15.50;13.00;;;;;-144.24;100.00;114865.94;5045943;28;45503;-72
2024/02/21 03:15:12;;;;;;;;;18.75;12.75;;;;;-144.24;100.00;114865.94;5040280;28;46255;-72
2024/02/21 03:17:38;;;;;;;;;17.00;15.00;;;;;-144.24;100.00;114865.94;5049312;28;45528;-72
2024/02/21 03:20:09;;;;;;;;;16.00;13.75;;;;;-144.24;100.00;114865.94;5046875;28;45372;-72
2024/02/21 03:22:35;;;;;;;;;16.25;13.50;;;;;-144.24;100.00;114865.94;5044235;28;45519;-73
2024/02/21 03:25:01;;;;;;;;;15.00;8.50;;;;;-144.24;100.00;114865.94;5043949;28;46301;-71
2024/02/21 03:27:26;;;;;;;;;14.50;13.25;;;;;-144.24;100.00;114865.94;5048961;28;49930;-70
2024/02/21 03:29:51;;;;;;;;;16.00;14.75;;;;;-144.24;100.00;114865.94;5045868;28;45453;-72
2024/02/21 03:32:17;;;;;;;;;21.00;14.00;;;;;-144.24;100.00;114865.94;5051595;28;45430;-72
2024/02/21 03:34:42;;;;;;;;;18.00;14.00;;;;;-144.24;100.00;114865.94;5046878;28;62017;-71
2024/02/21 03:37:07;;;;;;;;;13.25;10.75;;;;;-144.24;100.00;114865.94;5046021;28;69662;-73
2024/02/21 03:39:33;;;;;;;;;18.50;11.25;;;;;-144.24;100.00;114865.94;5046500;28;61610;-71
2024/02/21 03:42:00;;;;;;;;;14.50;11.00;;;;;-144.24;100.00;114865.94;5037515;28;45556;-71
2024/02/21 03:44:27;;;;;;;;;15.75;14.00;;;;;-144.24;100.00;114865.94;5040204;28;46420;-72
2024/02/21 03:46:52;;;;;;;;;19.00;12.75;;;;;-144.24;100.00;114865.94;5039166;28;45474;-71
2024/02/21 03:49:18;;;;;;;;;13.50;11.00;;;;;-144.24;100.00;114865.94;5045653;28;45525;-72
2024/02/21 03:51:43;;;;;;;;;10.75;10.00;;;;;-144.24;100.00;114865.94;5035578;28;45683;-74
2024/02/21 03:54:08;;;;;;;;;15.00;15.00;;;;;-144.24;100.00;114865.94;5041133;28;45618;-71
2024/02/21 03:56:37;;;;;;;;;14.25;12.50;;;;;-144.24;100.00;114865.94;5047742;28;71977;-72
2024/02/21 03:59:02;;;;;;;;;16.75;13.25;;;;;-144.24;100.00;114865.94;5057078;28;45516;-72
2024/02/21 04:01:28;;;;;;;;;10.75;8.00;;;;;-144.24;100.00;114865.94;5049840;28;45205;-72
2024/02/21 04:03:54;;;;;;;;;11.25;10.25;;;;;-144.24;100.00;114865.94;5048901;28;45671;-72
2024/02/21 04:06:19;;;;;;;;;14.50;10.50;;;;;-144.24;100.00;114865.94;5050455;28;72115;-72
2024/02/21 04:08:45;;;;;;;;;15.50;14.00;;;;;-144.24;100.00;114865.94;5054238;28;45459;-72
2024/02/21 04:11:10;;;;;;;;;16.00;14.00;;;;;-144.24;100.00;114865.94;5050067;28;62512;-71
2024/02/21 04:13:35;;;;;;;;;18.25;12.00;;;;;-144.24;100.00;114865.94;5045820;28;72323;-71
2024/02/21 04:16:01;;;;;;;;;11.75;11.00;;;;;-144.24;100.00;114865.94;5050589;28;65776;-73
2024/02/21 04:18:26;;;;;;;;;12.75;12.75;;;;;-144.24;100.00;114865.94;5049745;28;45347;-71
2024/02/21 04:20:52;;;;;;;;;15.25;13.25;;;;;-144.24;100.00;114865.94;5042049;28;59966;-72
2024/02/21 04:23:17;;;;;;;;;13.25;10.50;;;;;-144.24;100.00;114865.94;5051644;28;66378;-71
2024/02/21 04:25:42;;;;;;;;;15.00;11.00;;;;;-144.24;100.00;114865.94;5053371;28;71372;-71
2024/02/21 04:28:08;;;;;;;;;16.25;15.25;;;;;-144.24;100.00;114865.94;5049672;28;57308;-71
2024/02/21 04:30:33;;;;;;;;;11.25;10.50;;;;;-144.24;100.00;114865.94;5050789;28;45632;-72
2024/02/21 04:32:58;;;;;;;;;15.50;14.00;;;;;-144.24;100.00;114865.94;5050496;28;72706;-72
2024/02/21 04:35:23;;;;;;;;;15.50;13.50;;;;;-144.24;100.00;114865.94;5049861;28;72559;-72
2024/02/21 04:37:49;;;;;;;;;16.75;14.50;;;;;-144.24;100.00;114865.94;5051885;28;63877;-74
2024/02/21 04:40:16;;;;;;;;;14.50;12.50;;;;;-144.24;100.00;114865.94;5053676;28;45304;-72
2024/02/21 04:42:41;;;;;;;;;15.00;11.75;;;;;-144.24;100.00;114865.94;5051342;28;46488;-72
2024/02/21 04:45:07;;;;;;;;;17.00;11.00;;;;;-144.24;100.00;114865.94;5044679;28;49218;-72
2024/02/21 04:47:33;;;;;;;;;18.25;14.25;;;;;-144.24;100.00;114865.94;5040477;28;45316;-72
2024/02/21 04:49:58;;;;;;;;;12.50;10.00;;;;;-144.24;100.00;114865.94;5048491;28;45573;-72
2024/02/21 04:52:23;;;;;;;;;16.75;13.75;;;;;-144.24;100.00;114865.94;5042817;28;66428;-72
2024/02/21 04:54:49;;;;;;;;;19.50;13.50;;;;;-144.24;100.00;114865.94;5055198;28;72084;-72
2024/02/21 04:57:16;;;;;;;;;18.25;11.50;;;;;-144.24;100.00;114865.94;5055386;28;45383;-71
2024/02/21 04:59:49;;;;;;;;;14.25;11.25;;;;;-144.24;100.00;114865.94;5055934;28;46312;-72
2024/02/21 05:02:14;;;;;;;;;16.00;12.25;;;;;-144.24;100.00;114865.94;5041550;28;45434;-72
2024/02/21 05:04:41;;;;;;;;;17.50;15.25;;;;;-144.24;100.00;114865.94;5044146;28;72634;-72
2024/02/21 05:07:07;;;;;;;;;19.75;15.75;;;;;-144.24;100.00;114865.94;5052525;28;45445;-72
2024/02/21 05:09:32;;;;;;;;;15.75;14.50;;;;;-144.24;100.00;114865.94;5048435;28;45709;-73
2024/02/21 05:12:00;;;;;;;;;18.00;16.75;;;;;-144.24;100.00;114865.94;5053553;28;65681;-72
2024/02/21 05:14:29;;;;;;;;;13.75;11.50;;;;;-144.24;100.00;114865.94;5046721;28;45255;-72
2024/02/21 05:16:54;;;;;;;;;13.25;13.25;;;;;-144.24;100.00;114865.94;5041001;28;45518;-72
2024/02/21 05:19:20;;;;;;;;;16.25;14.50;;;;;-144.24;100.00;114865.94;5056297;28;45509;-73
2024/02/21 05:21:46;;;;;;;;;16.00;14.75;;;;;-144.24;100.00;114865.94;5050941;28;45356;-72
2024/02/21 05:24:11;;;;;;;;;15.50;14.50;;;;;-144.24;100.00;114865.94;5054388;28;71142;-74
2024/02/21 05:26:36;;;;;;;;;21.25;15.50;;;;;-144.24;100.00;114865.94;5046195;28;45372;-73
2024/02/21 05:29:02;;;;;;;;;16.50;12.25;;;;;-144.24;100.00;114865.94;5054612;28;55669;-71
2024/02/21 05:31:51;;;;;;;;;13.50;12.75;;;;;-144.24;100.00;114865.94;5046744;28;60653;-72
2024/02/21 05:34:17;;;;;;;;;15.25;15.25;;;;;-144.24;100.00;114865.94;5053094;28;45552;-74
2024/02/21 05:36:43;;;;;;;;;16.00;13.50;;;;;-144.24;100.00;114865.94;5054012;28;45444;-72
2024/02/21 05:39:08;;;;;;;;;11.00;11.00;;;;;-144.24;100.00;114865.94;5056022;28;45268;-73
2024/02/21 05:41:33;;;;;;;;;20.00;16.00;;;;;-144.24;100.00;114865.94;5054272;28;72211;-72
2024/02/21 05:43:59;;;;;;;;;15.25;11.00;;;;;-144.24;100.00;114865.94;5053640;28;70442;-72
2024/02/21 05:46:24;;;;;;;;;22.75;19.50;;;;;-144.24;100.00;114865.94;5047766;28;59817;-72
2024/02/21 05:48:49;;;;;;;;;16.00;15.75;;;;;-144.24;100.00;114865.94;5045231;28;45457;-73
2024/02/21 05:51:15;;;;;;;;;16.75;15.50;;;;;-144.24;100.00;114865.94;5040432;28;46003;-72
2024/02/21 05:53:40;;;;;;;;;13.00;11.25;;;;;-144.24;100.00;114865.94;5049994;28;69047;-72
2024/02/21 05:56:11;;;;;;;;;15.00;12.00;;;;;-144.24;100.00;114865.94;5055667;28;45924;-72
2024/02/21 05:58:36;;;;;;;;;15.50;15.25;;;;;-144.24;100.00;114865.94;5054789;28;45311;-72
2024/02/21 06:01:03;;;;;;;;;18.50;13.00;;;;;-144.24;100.00;114865.94;5051791;28;63273;-72
2024/02/21 06:03:29;;;;;;;;;15.75;13.75;;;;;-144.24;100.00;114865.94;5047019;28;45384;-72
2024/02/21 06:05:54;;;;;;;;;17.00;14.75;;;;;-144.24;100.00;114865.94;5040796;28;45359;-72
2024/02/21 06:08:20;;;;;;;;;17.75;14.00;;;;;-144.24;100.00;114865.94;5041026;28;45683;-72
2024/02/21 06:10:45;;;;;;;;;17.75;13.00;;;;;-144.24;100.00;114865.94;5051166;28;46515;-73
2024/02/21 06:13:10;;;;;;;;;18.75;16.25;;;;;-144.24;100.00;114865.94;5048432;28;45413;-72
2024/02/21 06:15:36;;;;;;;;;19.00;15.50;;;;;-144.24;100.00;114865.94;5045585;28;62387;-72
2024/02/21 06:18:01;;;;;;;;;19.50;12.00;;;;;-144.24;100.00;114865.94;5049864;28;47500;-73
2024/02/21 06:20:27;;;;;;;;;20.75;14.50;;;;;-144.24;100.00;114865.94;5054821;28;46270;-73
2024/02/21 06:22:52;;;;;;;;;14.75;13.00;;;;;-144.24;100.00;114865.94;5055603;28;62778;-72
2024/02/21 06:25:18;;;;;;;;;22.25;16.75;;;;;-144.24;100.00;114865.94;5051177;28;45462;-73
2024/02/21 06:27:43;;;;;;;;;12.75;12.50;;;;;-144.24;100.00;114865.94;5047280;28;60663;-72
2024/02/21 06:30:09;;;;;;;;;13.00;10.75;;;;;-144.24;100.00;114865.94;5052461;28;64413;-72
2024/02/21 06:32:34;;;;;;;;;18.00;16.00;;;;;-144.24;100.00;114865.94;5055802;28;45611;-72
2024/02/21 06:35:01;;;;;;;;;11.25;11.25;;;;;-144.24;100.00;114865.94;5055215;28;66235;-72
2024/02/21 06:37:27;;;;;;;;;19.75;16.50;;;;;-144.24;100.00;114865.94;5053064;28;45600;-72
2024/02/21 06:39:52;;;;;;;;;15.00;11.25;;;;;-144.24;100.00;114865.94;5048543;28;46678;-74
2024/02/21 06:42:17;;;;;;;;;13.50;13.50;;;;;-144.24;100.00;114865.94;5046128;28;70119;-73
2024/02/21 06:44:44;;;;;;;;;15.75;12.50;;;;;-144.24;100.00;114865.94;5054497;28;45417;-72
2024/02/21 06:47:09;;;;;;;;;18.50;12.50;;;;;-144.24;100.00;114865.94;5054637;28;45365;-73
2024/02/21 06:49:36;;;;;;;;;15.25;12.00;;;;;-144.24;100.00;114865.94;5038386;28;71555;-73
2024/02/21 06:52:02;;;;;;;;;13.67;10.00;;;;;-144.24;100.00;114865.94;5049199;28;45359;-72
2024/02/21 06:54:27;;;;;;;;;10.33;10.33;;;;;-144.24;100.00;114865.94;5051473;28;45419;-72
2024/02/21 06:56:53;;;;;;;;;9.00;8.00;;;;;-144.24;100.00;114865.94;5053077;28;55359;-74
2024/02/21 06:59:18;;;;;;;;;16.00;10.00;;;;;-144.24;100.00;114865.94;5043499;28;69721;-72
2024/02/21 07:01:48;;;;;;;;;9.33;8.33;;;;;-144.24;100.00;114865.94;5045770;28;45499;-74
2024/02/21 07:04:13;;;;;;;;;11.50;11.00;;;;;-144.24;100.00;114865.94;5054380;28;45442;-72
2024/02/21 07:06:39;;;;;;;;;13.33;10.00;;;;;-144.24;100.00;114865.94;5045009;28;59411;-76
2024/02/21 07:09:04;;;;;;;;;9.50;9.50;;;;;-144.24;100.00;114865.94;5045109;28;71940;-72
2024/02/21 07:11:30;;;;;;;;;9.67;9.00;;;;;-144.24;100.00;114865.94;5048311;28;68205;-72
2024/02/21 07:13:55;;;;;;;;;10.00;9.00;;;;;-144.24;100.00;114865.94;5049545;28;45751;-75
2024/02/21 07:16:20;;;;;;;;;8.00;8.00;;;;;-144.24;100.00;114865.94;5040685;28;67172;-73
2024/02/21 07:18:46;;;;;;;;;10.00;8.00;;;;;-144.24;100.00;114865.94;5048590;28;76603;-74
2024/02/21 07:21:12;;;;;;;;;9.33;9.33;;;;;-144.24;100.00;114865.94;5039238;28;71170;-73
2024/02/21 07:23:41;;;;;;;;;11.75;7.75;;;;;-144.24;100.00;114865.94;5039706;28;45614;-75
2024/02/21 07:26:06;;;;;;;;;10.00;9.00;;;;;-144.24;100.00;114865.94;5036146;28;45677;-75
2024/02/21 07:28:31;;;;;;;;;11.00;7.00;;;;;-144.24;100.00;114865.94;5045205;28;73112;-72
2024/02/21 07:30:59;;;;;;;;;5.67;5.67;;;;;-144.24;100.00;114865.94;5044980;28;45359;-73
2024/02/21 07:33:24;;;;;;;;;6.67;6.67;;;;;-144.24;100.00;114865.94;5053747;28;45653;-71
2024/02/21 07:35:49;;;;;;;;;8.33;7.00;;;;;-144.24;100.00;114865.94;5048196;28;67121;-72
2024/02/21 07:38:15;;;;;;;;;7.67;6.33;;;;;-144.24;100.00;114865.94;5046237;28;45700;-72
2024/02/21 07:40:40;;;;;;;;;9.33;8.00;;;;;-144.24;100.00;114865.94;5045693;28;59358;-72
2024/02/21 07:43:05;;;;;;;;;9.33;7.67;;;;;-144.24;100.00;114865.94;5045087;28;66182;-72
2024/02/21 07:45:31;;;;;;;;;7.67;7.67;;;;;-144.24;100.00;114865.94;5037659;28;59658;-73
2024/02/21 07:47:56;;;;;;;;;9.00;8.00;;;;;-144.24;100.00;114865.94;5053961;28;45759;-73
2024/02/21 07:50:21;;;;;;;;;13.00;9.00;;;;;-144.24;100.00;114865.94;5055593;28;61347;-73
2024/02/21 07:52:47;;;;;;;;;8.33;8.00;;;;;-144.24;100.00;114865.94;5051279;28;45636;-70
2024/02/21 07:55:12;;;;;;;;;8.25;7.75;;;;;-144.24;100.00;114865.94;5048307;28;64806;-73
2024/02/21 07:57:37;;;;;;;;;9.00;9.00;;;;;-144.24;100.00;114865.94;5053283;28;45725;-72
2024/02/21 08:00:09;;;;;;;;;9.33;7.67;;;;;-144.24;100.00;114865.94;5056667;28;45505;-73
2024/02/21 08:02:35;;;;;;;;;5.00;5.00;;;;;-144.24;100.00;114865.94;5045308;28;46054;-73
2024/02/21 08:05:00;;;;;;;;;8.00;8.00;;;;;-144.24;100.00;114865.94;5049280;28;45659;-74
2024/02/21 08:07:28;;;;;;;;;10.75;8.50;;;;;-144.24;100.00;114865.94;5046503;28;73995;-72
2024/02/21 08:09:54;;;;;;;;;9.00;6.75;;;;;-144.24;100.00;114865.94;5045663;28;45498;-71
2024/02/21 08:12:19;;;;;;;;;8.50;8.25;;;;;-144.24;100.00;114865.94;5053222;28;45725;-72
2024/02/21 08:14:44;;;;;;;;;10.25;8.50;;;;;-144.24;100.00;114865.94;5042013;28;64786;-72
2024/02/21 08:17:10;;;;;;;;;16.67;9.67;;;;;-144.24;100.00;114865.94;5052493;28;76022;-73
2024/02/21 08:19:36;;;;;;;;;10.00;8.33;;;;;-144.24;100.00;114865.94;5051931;28;64087;-73
2024/02/21 08:22:01;;;;;;;;;9.67;8.00;;;;;-144.24;100.00;114865.94;5045847;28;45530;-72
2024/02/21 08:24:26;;;;;;;;;11.25;10.00;;;;;-144.24;100.00;114865.94;5051947;28;45541;-73
2024/02/21 08:26:52;;;;;;;;;13.33;8.00;;;;;-144.24;100.00;114865.94;5048942;28;45750;-72
2024/02/21 08:29:17;;;;;;;;;13.33;7.67;;;;;-144.24;100.00;114865.94;5048282;28;45534;-73
2024/02/21 08:31:42;;;;;;;;;9.33;8.00;;;;;-144.24;100.00;114865.94;5046338;28;65602;-72
2024/02/21 08:34:08;;;;;;;;;10.00;7.00;;;;;-144.24;100.00;114865.94;5050549;28;45814;-73
2024/02/21 08:36:34;;;;;;;;;12.33;10.00;;;;;-144.24;100.00;114865.94;5049926;28;72188;-72
2024/02/21 08:39:00;;;;;;;;;9.00;8.00;;;;;-144.24;100.00;114865.94;5052381;28;45465;-71
2024/02/21 08:41:26;;;;;;;;;8.33;8.33;;;;;-144.24;100.00;114865.94;5052082;28;45544;-72
2024/02/21 08:43:52;;;;;;;;;8.00;8.00;;;;;-144.24;100.00;114865.94;5052945;28;45454;-74
2024/02/21 08:46:17;;;;;;;;;12.67;9.00;;;;;-144.24;100.00;114865.94;5052476;28;46793;-72
2024/02/21 08:48:43;;;;;;;;;8.67;7.33;;;;;-144.24;100.00;114865.94;5051525;28;64836;-71
2024/02/21 08:51:09;;;;;;;;;9.00;8.00;;;;;-144.24;100.00;114865.94;5057388;28;45378;-72
2024/02/21 08:53:34;;;;;;;;;9.67;9.00;;;;;-144.24;100.00;114865.94;5051242;28;54171;-74
2024/02/21 08:55:59;;;;;;;;;8.00;8.00;;;;;-144.24;100.00;114865.94;5051474;28;70506;-73
2024/02/21 08:58:26;;;;;;;;;11.33;9.00;;;;;-144.24;100.00;114865.94;5050690;28;45454;-73
2024/02/21 09:00:52;;;;;;;;;8.33;6.33;;;;;-144.24;100.00;114865.94;5052866;28;45533;-76
2024/02/21 09:03:19;;;;;;;;;10.00;9.00;;;;;-144.24;100.00;114865.94;5049722;28;59917;-73
2024/02/21 09:05:45;;;;;;;;;10.00;8.00;;;;;-144.24;100.00;114865.94;5045826;28;46098;-73
2024/02/21 09:08:10;;;;;;;;;11.00;8.00;;;;;-144.24;100.00;114865.94;5049516;28;45405;-73
2024/02/21 09:10:35;;;;;;;;;9.33;9.00;;;;;-144.24;100.00;114865.94;5052392;28;66044;-73
2024/02/21 09:13:03;;;;;;;;;7.67;6.00;;;;;-144.24;100.00;114865.94;5045577;28;66151;-74
2024/02/21 09:15:28;;;;;;;;;8.67;8.67;;;;;-144.24;100.00;114865.94;5044124;28;46151;-72
2024/02/21 09:17:54;;;;;;;;;5.33;5.33;;;;;-144.24;100.00;114865.94;5047260;28;66725;-73
2024/02/21 09:20:19;;;;;;;;;9.67;8.33;;;;;-144.24;100.00;114865.94;5049430;28;45491;-74
2024/02/21 09:22:45;;;;;;;;;6.67;6.67;;;;;-144.24;100.00;114865.94;5043975;28;61972;-71
2024/02/21 09:25:11;;;;;;;;;8.00;8.00;;;;;-144.24;100.00;114865.94;5052097;28;45653;-73
2024/02/21 09:27:38;;;;;;;;;11.00;8.00;;;;;-144.24;100.00;114865.94;5048802;28;45498;-72
2024/02/21 09:30:05;;;;;;;;;10.00;8.33;;;;;-144.24;100.00;114865.94;5047674;28;45506;-73
2024/02/21 09:32:30;;;;;;;;;9.00;8.00;;;;;-144.24;100.00;114865.94;5051654;28;45402;-73
2024/02/21 09:34:55;;;;;;;;;6.00;6.00;;;;;-144.24;100.00;114865.94;5050922;28;46601;-73
2024/02/21 09:37:21;;;;;;;;;9.00;6.00;;;;;-144.24;100.00;114865.94;5054933;28;45375;-73
2024/02/21 09:39:47;;;;;;;;;9.00;9.00;;;;;-144.24;100.00;114865.94;5049165;28;66653;-74
2024/02/21 09:42:14;;;;;;;;;11.00;7.33;;;;;-144.24;100.00;114865.94;5075480;27;45506;-72
2024/02/21 09:44:39;;;;;;;;;5.33;5.33;;;;;-144.24;100.00;114865.94;5054383;28;75069;-74
2024/02/21 09:47:44;;;;;;;;;11.00;8.33;;;;;-144.24;100.00;114865.94;5043188;28;45436;-73
2024/02/21 09:50:10;;;;;;;;;5.67;5.67;;;;;-144.24;100.00;114865.94;5007991;28;45482;-73
2024/02/21 09:52:36;;;;;;;;;6.00;5.00;;;;;-144.24;100.00;114865.94;5053701;28;45604;-72
2024/02/21 09:55:04;;;;;;;;;4.00;4.00;;;;;-144.24;100.00;114865.94;5050776;28;47404;-73
2024/02/21 09:57:31;;;;;;;;;9.00;6.00;;;;;-144.24;100.00;114865.94;5047667;28;45442;-75
2024/02/21 09:59:57;;;;;;;;;10.00;7.33;;;;;-144.24;100.00;114865.94;5052746;28;45431;-74
2024/02/21 10:02:22;;;;;;;;;6.67;6.67;;;;;-144.24;100.00;114865.94;5049251;28;45620;-75
2024/02/21 10:04:47;;;;;;;;;22.33;15.67;;;;;-144.24;100.00;114865.94;5043146;28;73475;-74
2024/02/21 10:07:13;;;;;;;;;6.33;6.00;;;;;-144.24;100.00;114865.94;5050444;28;66175;-72
2024/02/21 10:09:40;;;;;;;;;6.00;5.00;;;;;-144.24;100.00;114865.94;5047491;28;64317;-74
2024/02/21 10:12:09;;;;;;;;;6.00;6.00;;;;;-144.24;100.00;114865.94;5050129;28;45612;-75
2024/02/21 10:14:35;;;;;;;;;10.00;6.33;;;;;-144.24;100.00;114865.94;5048866;28;46587;-74
2024/02/21 10:17:00;;;;;;;;;10.67;6.00;;;;;-144.24;100.00;114865.94;5047039;28;66732;-72
2024/02/21 10:19:26;;;;;;;;;12.67;7.33;;;;;-144.24;100.00;114865.94;5046613;28;45495;-74
2024/02/21 10:22:17;;;;;;;;;10.67;9.00;;;;;-144.24;100.00;114865.94;5042782;28;60851;-73
2024/02/21 10:24:43;;;;;;;;;6.67;6.00;;;;;-144.24;100.00;114865.94;5043640;28;70044;-72
2024/02/21 10:27:10;;;;;;;;;7.00;4.00;;;;;-144.24;100.00;114865.94;5053630;28;45941;-73
2024/02/21 10:29:36;;;;;;;;;6.33;5.00;;;;;-144.24;100.00;114865.94;5049875;28;45378;-73
2024/02/21 10:32:13;;;;;;;;;11.00;7.00;;;;;-144.24;100.00;114865.94;5044562;28;45673;-73
2024/02/21 10:34:41;;;;;;;;;7.00;7.00;;;;;-144.24;100.00;114865.94;5043533;28;47780;-73
2024/02/21 10:37:08;;;;;;;;;5.00;4.33;;;;;-144.24;100.00;114865.94;5045773;28;45565;-73
2024/02/21 10:39:34;;;;;;;;;8.00;6.67;;;;;-144.24;100.00;114865.94;5046458;28;45455;-74
2024/02/21 10:42:05;;;;;;;;;10.67;8.00;;;;;-144.24;100.00;114865.94;5043636;28;45912;-73
2024/02/21 10:44:39;;;;;;;;;11.67;7.00;;;;;-144.24;100.00;114865.94;5047521;28;45705;-73
2024/02/21 10:47:09;;;;;;;;;8.67;5.00;;;;;-144.24;100.00;114865.94;5047223;28;45465;-74